Hilldale, Tennessee
Current Conditions -  °F | °C
As of 4:52 PM on Thursday 23 Oct 2014 (Local Time) from KCKV Reporting Station
Clear Clear  
Wind Chill: 17°   Ceiling: Unl
Heat Index: 17°   Visibility: 10mi
Dew Point:   Wind: 5mph
Humidity: 45%   Direction: NA
Pressure: 30.13"   Gusts: NA
Location:  36.4964°N, 87.234°W
Report Text: KCKV 232152Z AUTO VRB04KT 10SM CLR 17/05 A3013 RMK AO2 SLP203 T01720050
Loading
Personal Weather Stations






























Interactive Weather Map
Tropical Storm Tracking
New forecast layout! Learn more

10-Day Weather Forecast

Advertisements
Track Severe Weather on mobile